createdAt,value
2024-01-18T00:00:53.772Z,-1.57
2024-01-18T00:03:21.827Z,-1.56
2024-01-18T00:05:51.700Z,-1.54
2024-01-18T00:08:19.944Z,-1.60
2024-01-18T00:10:48.038Z,-1.63
2024-01-18T00:13:16.241Z,-1.60
2024-01-18T00:15:44.400Z,-1.61
2024-01-18T00:18:12.676Z,-1.60
2024-01-18T00:20:40.816Z,-1.60
2024-01-18T00:23:10.052Z,-1.58
2024-01-18T00:25:38.092Z,-1.58
2024-01-18T00:28:06.519Z,-1.58
2024-01-18T00:30:34.581Z,-1.58
2024-01-18T00:33:02.981Z,-1.51
2024-01-18T00:35:30.916Z,-1.54
2024-01-18T00:37:58.919Z,-1.57
2024-01-18T00:40:28.398Z,-1.58
2024-01-18T00:42:56.385Z,-1.51
2024-01-18T00:45:24.301Z,-1.46
2024-01-18T00:47:52.242Z,-1.51
2024-01-18T00:50:20.153Z,-1.56
2024-01-18T00:52:48.271Z,-1.54
2024-01-18T00:55:16.394Z,-1.60
2024-01-18T00:57:45.828Z,-1.58
2024-01-18T01:00:16.121Z,-1.58
2024-01-18T01:02:44.144Z,-1.61
2024-01-18T01:05:12.055Z,-1.54
2024-01-18T01:07:39.977Z,-1.47
2024-01-18T01:10:08.594Z,-1.44
2024-01-18T01:12:36.513Z,-1.44
2024-01-18T01:15:08.777Z,-1.48
2024-01-18T01:17:37.025Z,-1.51
2024-01-18T01:20:06.246Z,-1.57
2024-01-18T01:22:34.779Z,-1.63
2024-01-18T01:25:02.652Z,-1.60
2024-01-18T01:27:30.774Z,-1.54
2024-01-18T01:29:59.039Z,-1.58
2024-01-18T01:32:28.326Z,-1.56
2024-01-18T01:34:56.516Z,-1.53
2024-01-18T01:37:24.413Z,-1.57
2024-01-18T01:39:52.622Z,-1.63
2024-01-18T01:42:20.680Z,-1.60
2024-01-18T01:44:48.670Z,-1.61
2024-01-18T01:47:16.655Z,-1.60
2024-01-18T01:49:46.073Z,-1.57
2024-01-18T01:52:14.720Z,-1.56
2024-01-18T01:54:43.694Z,-1.54
2024-01-18T01:57:11.818Z,-1.43
2024-01-18T01:59:45.068Z,-1.48
2024-01-18T02:02:14.108Z,-1.58
2024-01-18T02:04:43.184Z,-1.63
2024-01-18T02:07:14.408Z,-1.66
2024-01-18T02:09:43.020Z,-1.63
2024-01-18T02:12:13.392Z,-1.64
2024-01-18T02:14:41.733Z,-1.63
2024-01-18T02:17:09.769Z,-1.64
2024-01-18T02:19:37.655Z,-1.63
2024-01-18T02:22:09.262Z,-1.63
2024-01-18T02:24:43.867Z,-1.68
2024-01-18T02:27:13.543Z,-1.71
2024-01-18T02:29:41.584Z,-1.67
2024-01-18T02:32:09.421Z,-1.64
2024-01-18T02:34:40.496Z,-1.63
2024-01-18T02:37:08.583Z,-1.61
2024-01-18T02:39:37.285Z,-1.56
2024-01-18T02:42:06.076Z,-1.51
2024-01-18T02:44:35.431Z,-1.51
2024-01-18T02:47:03.394Z,-1.51
2024-01-18T02:49:31.422Z,-1.56
2024-01-18T02:51:59.474Z,-1.63
2024-01-18T02:54:27.647Z,-1.67
2024-01-18T02:56:55.537Z,-1.68
2024-01-18T02:59:23.654Z,-1.66
2024-01-18T03:01:53.027Z,-1.74
2024-01-18T03:04:21.642Z,-1.82
2024-01-18T03:06:49.650Z,-1.81
2024-01-18T03:09:17.708Z,-1.84
2024-01-18T03:11:45.541Z,-1.79
2024-01-18T03:14:14.175Z,-1.88
2024-01-18T03:16:44.304Z,-1.87
2024-01-18T03:19:13.951Z,-1.98
2024-01-18T03:21:42.484Z,-1.99
2024-01-18T03:24:10.484Z,-1.99
2024-01-18T03:26:38.548Z,-1.97
2024-01-18T03:29:07.209Z,-1.97
2024-01-18T03:31:38.294Z,-2.03
2024-01-18T03:34:06.277Z,-1.95
2024-01-18T03:36:35.713Z,-1.95
2024-01-18T03:39:03.708Z,-1.94
2024-01-18T03:41:32.001Z,-1.97
2024-01-18T03:44:00.027Z,-1.92
2024-01-18T03:46:28.032Z,-1.92
2024-01-18T03:48:56.163Z,-1.95
2024-01-18T03:51:44.327Z,-1.98
2024-01-18T03:54:12.556Z,-1.95
2024-01-18T03:56:40.690Z,-1.88
2024-01-18T03:59:08.732Z,-1.81
2024-01-18T04:01:36.623Z,-1.79
2024-01-18T04:04:05.045Z,-1.78
2024-01-18T04:06:33.187Z,-1.82
2024-01-18T04:09:02.864Z,-1.84
2024-01-18T04:11:32.064Z,-1.87
2024-01-18T04:14:00.116Z,-1.85
2024-01-18T04:16:28.311Z,-1.81
2024-01-18T04:18:56.550Z,-1.85
2024-01-18T04:21:24.641Z,-1.87
2024-01-18T04:23:52.907Z,-1.92
2024-01-18T04:26:22.427Z,-1.92
2024-01-18T04:28:50.428Z,-1.94
2024-01-18T04:31:18.293Z,-1.92
2024-01-18T04:33:46.462Z,-1.92
2024-01-18T04:36:14.594Z,-1.88
2024-01-18T04:38:42.878Z,-1.87
2024-01-18T04:41:10.901Z,-1.81
2024-01-18T04:43:40.076Z,-1.82
2024-01-18T04:46:10.655Z,-1.77
2024-01-18T04:48:39.214Z,-1.81
2024-01-18T04:51:07.377Z,-1.79
2024-01-18T04:53:35.541Z,-1.77
2024-01-18T04:56:03.538Z,-1.71
2024-01-18T04:58:31.673Z,-1.70
2024-01-18T05:01:02.429Z,-1.74
2024-01-18T05:03:30.737Z,-1.78
2024-01-18T05:05:58.815Z,-1.79
2024-01-18T05:08:27.275Z,-1.79
2024-01-18T05:10:56.116Z,-1.72
2024-01-18T05:13:24.071Z,-1.77
2024-01-18T05:15:52.572Z,-1.74
2024-01-18T05:18:22.442Z,-1.71
2024-01-18T05:20:50.340Z,-1.72
2024-01-18T05:23:18.331Z,-1.75
2024-01-18T05:25:46.535Z,-1.72
2024-01-18T05:28:14.507Z,-1.77
2024-01-18T05:30:42.529Z,-1.78
2024-01-18T05:33:10.518Z,-1.89
2024-01-18T05:35:39.945Z,-1.91
2024-01-18T05:38:07.882Z,-1.84
2024-01-18T05:40:35.736Z,-1.78
2024-01-18T05:43:04.060Z,-1.71
2024-01-18T05:45:32.078Z,-1.64
2024-01-18T05:48:01.045Z,-1.66
2024-01-18T05:50:29.050Z,-1.63
2024-01-18T05:52:58.676Z,-1.70
2024-01-18T05:55:26.639Z,-1.71
2024-01-18T05:57:54.482Z,-1.75
2024-01-18T06:00:22.996Z,-1.75
2024-01-18T06:02:50.893Z,-1.81
2024-01-18T06:05:18.862Z,-1.84
2024-01-18T06:07:45.937Z,-1.79
2024-01-18T06:10:15.186Z,-1.87
2024-01-18T06:12:43.326Z,-1.88
2024-01-18T06:15:12.211Z,-1.98
2024-01-18T06:17:40.395Z,-2.03
2024-01-18T06:20:09.361Z,-2.13
2024-01-18T06:22:37.376Z,-2.22
2024-01-18T06:25:06.056Z,-2.29
2024-01-18T06:27:36.613Z,-2.23
2024-01-18T06:30:10.696Z,-2.26
2024-01-18T06:32:39.591Z,-2.29
2024-01-18T06:35:08.142Z,-2.33
2024-01-18T06:37:36.004Z,-2.32
2024-01-18T06:40:04.452Z,-2.45
2024-01-18T06:42:33.130Z,-2.43
2024-01-18T06:45:03.587Z,-2.49
2024-01-18T06:47:31.674Z,-2.49
2024-01-18T06:49:59.761Z,-2.46
2024-01-18T06:52:27.665Z,-2.43
2024-01-18T06:54:55.578Z,-2.50
2024-01-18T06:57:23.738Z,-1.23
2024-01-18T06:59:55.962Z,0.68
2024-01-18T07:02:25.418Z,1.44
2024-01-18T07:04:53.550Z,1.72
2024-01-18T07:07:21.535Z,2.05
2024-01-18T07:09:49.649Z,1.83
2024-01-18T07:12:17.613Z,2.01
2024-01-18T07:14:45.589Z,1.98
2024-01-18T07:17:13.695Z,1.83
2024-01-18T07:19:43.095Z,1.62
2024-01-18T07:22:11.335Z,1.78
2024-01-18T07:24:39.285Z,2.39
2024-01-18T07:27:10.880Z,2.50
2024-01-18T07:29:39.065Z,2.65
2024-01-18T07:32:07.678Z,2.83
2024-01-18T07:34:36.331Z,3.00
2024-01-18T07:37:08.664Z,2.83
2024-01-18T07:39:37.961Z,3.00
2024-01-18T07:42:06.753Z,2.74
2024-01-18T07:44:34.800Z,2.42
2024-01-18T07:47:03.003Z,1.92
2024-01-18T07:49:30.937Z,1.52
2024-01-18T07:51:59.146Z,1.51
2024-01-18T07:54:29.000Z,1.29
2024-01-18T07:56:57.359Z,1.52
2024-01-18T07:59:25.434Z,1.72
2024-01-18T08:01:53.314Z,1.86
2024-01-18T08:04:21.492Z,1.68
2024-01-18T08:06:49.599Z,1.46
2024-01-18T08:09:17.828Z,1.52
2024-01-18T08:11:47.948Z,1.57
2024-01-18T08:14:18.262Z,2.18
2024-01-18T08:16:46.389Z,2.18
2024-01-18T08:19:14.671Z,2.08
2024-01-18T08:21:46.095Z,2.42
2024-01-18T08:24:14.353Z,1.95
2024-01-18T08:26:42.714Z,1.91
2024-01-18T08:29:12.024Z,1.57
2024-01-18T08:31:40.930Z,2.08
2024-01-18T08:34:09.970Z,2.52
2024-01-18T08:36:38.660Z,2.87
2024-01-18T08:39:09.118Z,3.56
2024-01-18T08:41:37.229Z,3.86
2024-01-18T08:44:06.375Z,4.30
2024-01-18T08:46:35.778Z,4.78
2024-01-18T08:49:03.739Z,5.00
2024-01-18T08:51:31.898Z,5.36
2024-01-18T08:53:59.981Z,5.44
2024-01-18T08:56:31.174Z,5.39
2024-01-18T08:59:00.378Z,4.58
2024-01-18T09:01:28.295Z,4.45
2024-01-18T09:03:57.775Z,4.49
2024-01-18T09:06:26.428Z,4.42
2024-01-18T09:08:54.429Z,5.31
2024-01-18T09:11:22.914Z,5.98
2024-01-18T09:13:51.649Z,6.25
2024-01-18T09:16:19.692Z,6.52
2024-01-18T09:19:00.508Z,6.52
2024-01-18T09:21:35.748Z,6.42
2024-01-18T09:24:04.111Z,6.40
2024-01-18T09:26:32.250Z,6.16
2024-01-18T09:29:00.154Z,4.41
2024-01-18T09:31:37.903Z,3.60
2024-01-18T09:34:09.945Z,2.50
2024-01-18T09:36:39.853Z,1.86
2024-01-18T09:39:10.155Z,1.46
2024-01-18T09:41:38.319Z,1.17
2024-01-18T09:44:06.682Z,0.68
2024-01-18T09:46:34.587Z,0.35
2024-01-18T09:49:04.716Z,0.06
2024-01-18T09:51:33.688Z,-0.41
2024-01-18T09:54:03.217Z,-0.25
2024-01-18T09:56:32.231Z,-0.09
2024-01-18T09:59:00.500Z,-0.14
2024-01-18T10:01:28.874Z,-0.10
2024-01-18T10:03:56.987Z,-0.23
2024-01-18T10:06:25.423Z,-0.28
2024-01-18T10:08:54.421Z,-0.27
2024-01-18T10:11:23.905Z,-0.20
2024-01-18T10:13:56.834Z,-0.31
2024-01-18T10:16:27.656Z,-0.53
2024-01-18T10:18:56.318Z,-0.31
2024-01-18T10:21:24.806Z,-0.06
2024-01-18T10:23:53.796Z,0.06
2024-01-18T10:26:23.788Z,-0.03
2024-01-18T10:28:51.717Z,-0.02
2024-01-18T10:31:19.856Z,0.37
2024-01-18T10:33:48.812Z,0.28
2024-01-18T10:36:17.122Z,0.86
2024-01-18T10:38:45.115Z,0.73
2024-01-18T10:41:13.191Z,0.75
2024-01-18T10:43:42.616Z,0.61
2024-01-18T10:46:11.858Z,0.27
2024-01-18T10:48:39.824Z,0.54
2024-01-18T10:51:08.853Z,0.45
2024-01-18T10:53:38.322Z,0.72
2024-01-18T10:56:07.104Z,0.70
2024-01-18T10:58:35.268Z,0.35
2024-01-18T11:01:05.781Z,0.37
2024-01-18T11:03:35.265Z,0.37
2024-01-18T11:06:09.393Z,0.22
2024-01-18T11:08:38.553Z,0.40
2024-01-18T11:11:07.855Z,0.70
2024-01-18T11:13:36.793Z,0.52
2024-01-18T11:16:07.074Z,0.21
2024-01-18T11:18:36.277Z,0.37
2024-01-18T11:21:08.033Z,0.22
2024-01-18T11:23:37.979Z,0.38
2024-01-18T11:26:07.195Z,0.69
2024-01-18T11:28:35.189Z,0.93
2024-01-18T11:31:03.790Z,0.86
2024-01-18T11:33:34.071Z,0.90
2024-01-18T11:36:03.829Z,1.04
2024-01-18T11:38:33.788Z,1.03
2024-01-18T11:41:10.631Z,0.70
2024-01-18T11:43:54.324Z,0.37
2024-01-18T11:46:35.148Z,0.22
2024-01-18T11:49:04.972Z,0.40
2024-01-18T11:51:33.148Z,0.40
2024-01-18T11:54:02.094Z,0.41
2024-01-18T11:56:31.046Z,0.61
2024-01-18T11:59:02.367Z,0.64
2024-01-18T12:01:33.087Z,0.54
2024-01-18T12:04:01.349Z,0.80
2024-01-18T12:06:32.542Z,0.83
2024-01-18T12:09:01.274Z,1.01
2024-01-18T12:11:30.572Z,0.61
2024-01-18T12:13:58.567Z,0.70
2024-01-18T12:16:26.515Z,0.73
2024-01-18T12:18:55.824Z,0.75
2024-01-18T12:21:24.564Z,0.69
2024-01-18T12:23:55.759Z,0.88
2024-01-18T12:29:09.464Z,0.28
2024-01-18T12:31:37.557Z,0.28
2024-01-18T12:34:06.210Z,0.10
2024-01-18T12:36:34.429Z,0.22
2024-01-18T12:39:04.148Z,0.18
2024-01-18T12:41:33.104Z,-0.02
2024-01-18T12:44:06.457Z,-0.10
2024-01-18T12:46:36.648Z,-0.31
2024-01-18T12:49:05.119Z,-0.30
2024-01-18T12:51:34.195Z,0.03
2024-01-18T12:54:03.796Z,0.07
2024-01-18T12:56:32.422Z,0.57
2024-01-18T12:59:00.553Z,1.52
2024-01-18T13:01:29.733Z,2.18
2024-01-18T13:04:13.933Z,2.64
2024-01-18T13:06:50.688Z,2.39
2024-01-18T13:09:27.479Z,2.23
2024-01-18T13:11:56.400Z,2.26
2024-01-18T13:14:24.636Z,2.12
2024-01-18T13:16:53.318Z,1.51
2024-01-18T13:19:22.497Z,1.03
2024-01-18T13:21:53.300Z,0.65
2024-01-18T13:24:23.960Z,0.31
2024-01-18T13:26:53.703Z,0.13
2024-01-18T13:29:21.597Z,0.00
2024-01-18T13:31:49.807Z,0.06
2024-01-18T13:34:18.657Z,0.10
2024-01-18T13:36:47.707Z,0.06
2024-01-18T13:39:16.067Z,0.10
2024-01-18T13:41:45.716Z,0.00
2024-01-18T13:44:13.797Z,-0.07
2024-01-18T13:46:42.189Z,-0.11
2024-01-18T13:49:11.026Z,-0.21
2024-01-18T13:51:39.478Z,-0.20
2024-01-18T13:54:07.503Z,-0.20
2024-01-18T13:56:35.784Z,-0.13
2024-01-18T13:59:05.022Z,-0.04
2024-01-18T14:01:33.344Z,0.04
2024-01-18T14:04:01.274Z,0.11
2024-01-18T14:06:29.627Z,0.34
2024-01-18T14:08:58.701Z,0.35
2024-01-18T14:11:26.884Z,0.27
2024-01-18T14:13:54.989Z,0.10
2024-01-18T14:16:24.306Z,-0.06
2024-01-18T14:18:52.986Z,-0.24
2024-01-18T14:21:20.954Z,-0.38
2024-01-18T14:23:48.936Z,-0.61
2024-01-18T14:26:18.204Z,-0.60
2024-01-18T14:28:46.450Z,-0.69
2024-01-18T14:31:14.638Z,-0.84
2024-01-18T14:33:44.197Z,-0.88
2024-01-18T14:36:12.416Z,-1.02
2024-01-18T14:38:40.348Z,-0.99
2024-01-18T14:41:08.385Z,-1.06
2024-01-18T14:43:36.257Z,-1.09
2024-01-18T14:46:04.288Z,-1.09
2024-01-18T14:48:32.347Z,-1.10
2024-01-18T14:51:01.674Z,-1.16
2024-01-18T14:53:29.818Z,-1.21
2024-01-18T14:55:57.939Z,-1.15
2024-01-18T14:58:25.823Z,-1.26
2024-01-18T15:00:53.978Z,-1.23
2024-01-18T15:03:21.974Z,-1.13
2024-01-18T15:05:50.060Z,-1.06
2024-01-18T15:08:19.330Z,-0.95
2024-01-18T15:10:47.325Z,-0.88
2024-01-18T15:13:15.723Z,-0.86
2024-01-18T15:15:44.104Z,-0.89
2024-01-18T15:18:12.402Z,-0.92
2024-01-18T15:20:40.549Z,-1.00
2024-01-18T15:23:08.720Z,-1.09
2024-01-18T15:25:37.970Z,-1.20
2024-01-18T15:28:06.621Z,-1.25
2024-01-18T15:30:34.568Z,-1.27
2024-01-18T15:33:02.620Z,-1.32
2024-01-18T15:35:30.745Z,-1.33
2024-01-18T15:37:58.800Z,-1.35
2024-01-18T15:40:26.865Z,-1.29
2024-01-18T15:42:56.515Z,-1.35
2024-01-18T15:45:24.470Z,-1.35
2024-01-18T15:47:53.145Z,-1.37
2024-01-18T15:50:21.062Z,-1.46
2024-01-18T15:52:49.223Z,-1.44
2024-01-18T15:55:17.262Z,-1.54
2024-01-18T15:57:45.277Z,-1.60
2024-01-18T16:00:15.959Z,-1.61
2024-01-18T16:02:43.918Z,-1.58
2024-01-18T16:05:12.160Z,-1.60
2024-01-18T16:07:40.141Z,-1.64
2024-01-18T16:10:09.333Z,-1.66
2024-01-18T16:12:37.453Z,-1.66
2024-01-18T16:15:06.144Z,-1.75
2024-01-18T16:17:35.665Z,-1.81
2024-01-18T16:20:03.663Z,-1.82
2024-01-18T16:22:31.758Z,-1.81
2024-01-18T16:24:59.827Z,-1.81
2024-01-18T16:27:27.788Z,-1.87
2024-01-18T16:30:03.040Z,-1.81
2024-01-18T16:32:36.240Z,-1.79
2024-01-18T16:35:05.199Z,-1.70
2024-01-18T16:37:33.200Z,-1.68
2024-01-18T16:40:01.277Z,-1.61
2024-01-18T16:42:29.626Z,-1.56
2024-01-18T16:44:57.666Z,-1.48
2024-01-18T16:47:25.666Z,-1.46
2024-01-18T16:49:54.950Z,-1.46
2024-01-18T16:52:24.152Z,-1.48
2024-01-18T16:54:53.222Z,-1.40
2024-01-18T16:57:29.429Z,-1.37
2024-01-18T17:00:00.811Z,-1.36
2024-01-18T17:02:28.910Z,-1.40
2024-01-18T17:04:58.364Z,-1.33
2024-01-18T17:07:27.026Z,-1.39
2024-01-18T17:09:55.016Z,-1.35
2024-01-18T17:12:23.198Z,-1.39
2024-01-18T17:14:51.139Z,-1.44
2024-01-18T17:17:19.016Z,-1.36
2024-01-18T17:19:48.671Z,-1.23
2024-01-18T17:22:17.990Z,-1.15
2024-01-18T17:24:46.347Z,-1.05
2024-01-18T17:27:14.526Z,-1.03
2024-01-18T17:29:47.055Z,-0.99
2024-01-18T17:32:15.399Z,-1.00
2024-01-18T17:34:43.441Z,-0.95
2024-01-18T17:37:11.967Z,-0.89
2024-01-18T17:39:41.236Z,-0.93
2024-01-18T17:42:09.389Z,-0.97
2024-01-18T17:44:37.631Z,-1.06
2024-01-18T17:47:07.812Z,-1.07
2024-01-18T17:49:36.341Z,-1.10
2024-01-18T17:52:05.121Z,-1.16
2024-01-18T17:54:33.103Z,-1.26
2024-01-18T17:57:02.839Z,-1.25
2024-01-18T17:59:30.822Z,-1.16
2024-01-18T18:01:59.477Z,-1.30
2024-01-18T18:04:27.600Z,-1.30
2024-01-18T18:06:55.679Z,-1.29
2024-01-18T18:09:23.732Z,-1.36
2024-01-18T18:11:51.858Z,-1.46
2024-01-18T18:14:21.200Z,-1.58
2024-01-18T18:16:49.373Z,-1.60
2024-01-18T18:19:17.445Z,-1.61
2024-01-18T18:21:45.337Z,-1.60
2024-01-18T18:24:13.559Z,-1.60
2024-01-18T18:26:43.141Z,-1.54
2024-01-18T18:29:11.350Z,-1.46
2024-01-18T18:31:40.848Z,-1.43
2024-01-18T18:34:16.500Z,-1.29
2024-01-18T18:36:51.732Z,-1.17
2024-01-18T18:39:19.851Z,-1.10
2024-01-18T18:41:48.012Z,-1.03
2024-01-18T18:44:16.059Z,-1.02
2024-01-18T18:46:45.350Z,-1.06
2024-01-18T18:49:13.380Z,-1.03
2024-01-18T18:51:41.283Z,-1.06
2024-01-18T18:54:09.142Z,-1.07
2024-01-18T18:56:37.379Z,-1.07
2024-01-18T18:59:07.180Z,-1.03
2024-01-18T19:04:23.171Z,-0.92
2024-01-18T19:06:51.130Z,-0.92
2024-01-18T19:09:19.146Z,-0.96
2024-01-18T19:11:47.079Z,-1.03
2024-01-18T19:14:15.247Z,-1.02
2024-01-18T19:16:43.156Z,-0.97
2024-01-18T19:19:11.338Z,-0.97
2024-01-18T19:21:40.812Z,-0.97
2024-01-18T19:24:08.803Z,-0.89
2024-01-18T19:26:36.848Z,-0.88
2024-01-18T19:29:05.068Z,-0.82
2024-01-18T19:31:32.915Z,-0.75
2024-01-18T19:34:01.076Z,-0.74
2024-01-18T19:36:28.955Z,-0.72
2024-01-18T19:38:58.504Z,-0.71
2024-01-18T19:41:28.850Z,-0.60
2024-01-18T19:43:57.107Z,-0.65
2024-01-18T19:46:25.019Z,-0.76
2024-01-18T19:48:52.938Z,-0.86
2024-01-18T19:51:20.928Z,-0.93
2024-01-18T19:53:49.036Z,-0.99
2024-01-18T19:56:18.359Z,-1.05
2024-01-18T19:58:46.481Z,-1.02
2024-01-18T20:01:14.393Z,-1.00
2024-01-18T20:03:42.640Z,-0.91
2024-01-18T20:06:11.383Z,-0.82
2024-01-18T20:08:39.404Z,-0.74
2024-01-18T20:13:54.912Z,-0.58
2024-01-18T20:16:23.092Z,-0.58
2024-01-18T20:18:52.441Z,-0.53
2024-01-18T20:21:20.843Z,-0.51
2024-01-18T20:23:48.988Z,-0.50
2024-01-18T20:26:17.003Z,-0.45
2024-01-18T20:28:49.319Z,-0.41
2024-01-18T20:31:18.579Z,-0.34
2024-01-18T20:33:47.110Z,-0.31
2024-01-18T20:36:15.170Z,-0.28
2024-01-18T20:38:43.450Z,-0.30
2024-01-18T20:41:13.223Z,-0.31
2024-01-18T20:43:41.278Z,-0.33
2024-01-18T20:46:09.293Z,-0.31
2024-01-18T20:48:38.610Z,-0.41
2024-01-18T20:51:06.902Z,-0.35
2024-01-18T20:53:35.534Z,-0.33
2024-01-18T20:56:04.542Z,-0.33
2024-01-18T20:58:32.412Z,-0.41
2024-01-18T21:01:03.709Z,-0.37
2024-01-18T21:03:31.708Z,-0.37
2024-01-18T21:06:01.336Z,-0.37
2024-01-18T21:08:29.426Z,-0.33
2024-01-18T21:10:57.413Z,-0.31
2024-01-18T21:13:25.431Z,-0.28
2024-01-18T21:15:53.367Z,-0.25
2024-01-18T21:18:21.621Z,-0.24
2024-01-18T21:20:49.746Z,-0.25
2024-01-18T21:23:19.344Z,-0.20
2024-01-18T21:25:47.286Z,-0.17
2024-01-18T21:28:15.418Z,-0.20
2024-01-18T21:30:43.406Z,-0.17
2024-01-18T21:33:12.741Z,-0.28
2024-01-18T21:35:40.804Z,-0.34
2024-01-18T21:38:09.080Z,-0.44
2024-01-18T21:40:38.355Z,-0.58
2024-01-18T21:43:06.575Z,-0.64
2024-01-18T21:45:34.849Z,-0.71
2024-01-18T21:48:03.205Z,-0.81
2024-01-18T21:50:31.389Z,-0.84
2024-01-18T21:52:59.475Z,-0.85
2024-01-18T21:55:28.285Z,-0.76
2024-01-18T21:57:57.584Z,-0.66
2024-01-18T22:00:25.711Z,-0.65
2024-01-18T22:02:54.392Z,-0.58
2024-01-18T22:05:24.514Z,-0.75
2024-01-18T22:07:52.465Z,-0.91
2024-01-18T22:10:20.369Z,-1.09
2024-01-18T22:12:48.382Z,-1.09
2024-01-18T22:15:18.930Z,-1.07
2024-01-18T22:17:47.093Z,-0.95
2024-01-18T22:20:15.096Z,-0.99
2024-01-18T22:22:43.340Z,-0.92
2024-01-18T22:25:11.492Z,-0.99
2024-01-18T22:27:39.490Z,-1.12
2024-01-18T22:30:10.355Z,-1.19
2024-01-18T22:32:39.828Z,-1.26
2024-01-18T22:35:08.747Z,-1.27
2024-01-18T22:37:36.555Z,-1.25
2024-01-18T22:40:06.032Z,-1.17
2024-01-18T22:42:35.288Z,-1.25
2024-01-18T22:45:03.300Z,-1.29
2024-01-18T22:47:31.397Z,-1.35
2024-01-18T22:50:00.964Z,-1.43
2024-01-18T22:52:29.036Z,-1.37
2024-01-18T22:54:57.471Z,-1.33
2024-01-18T22:57:25.514Z,-1.29
2024-01-18T22:59:53.414Z,-1.25
2024-01-18T23:02:21.743Z,-1.32
2024-01-18T23:04:49.619Z,-1.43
2024-01-18T23:07:19.046Z,-1.43
2024-01-18T23:09:48.124Z,-1.46
2024-01-18T23:12:16.444Z,-1.39
2024-01-18T23:14:44.428Z,-1.39
2024-01-18T23:17:12.754Z,-1.36
2024-01-18T23:19:40.634Z,-1.44
2024-01-18T23:22:08.776Z,-1.48
2024-01-18T23:24:38.034Z,-1.56
2024-01-18T23:27:08.298Z,-1.58
2024-01-18T23:29:37.709Z,-1.61
2024-01-18T23:32:06.750Z,-1.64
2024-01-18T23:34:34.921Z,-1.66
2024-01-18T23:37:03.123Z,-1.64
2024-01-18T23:39:31.008Z,-1.70
2024-01-18T23:42:00.491Z,-1.74
2024-01-18T23:44:28.418Z,-1.70
2024-01-18T23:46:56.586Z,-1.71
2024-01-18T23:49:24.489Z,-1.66
2024-01-18T23:51:52.736Z,-1.64
2024-01-18T23:54:20.668Z,-1.67
2024-01-18T23:56:48.588Z,-1.71
2024-01-18T23:59:18.076Z,-1.66
